sensor_id;sensor_type;location;lat;lon;timestamp;P1;durP1;ratioP1;P2;durP2;ratioP2
10170;SDS011;5127;50.922;6.988;2023-01-19T00:00:04;5.90;;;4.70;;
10170;SDS011;5127;50.922;6.988;2023-01-19T00:02:35;6.53;;;5.03;;
10170;SDS011;5127;50.922;6.988;2023-01-19T00:05:02;6.37;;;5.00;;
10170;SDS011;5127;50.922;6.988;2023-01-19T00:07:30;7.40;;;5.63;;
10170;SDS011;5127;50.922;6.988;2023-01-19T00:09:57;7.47;;;5.47;;
10170;SDS011;5127;50.922;6.988;2023-01-19T00:12:25;8.77;;;5.47;;
10170;SDS011;5127;50.922;6.988;2023-01-19T00:14:53;8.20;;;5.90;;
10170;SDS011;5127;50.922;6.988;2023-01-19T00:17:21;7.10;;;5.20;;
10170;SDS011;5127;50.922;6.988;2023-01-19T00:19:48;7.43;;;5.47;;
10170;SDS011;5127;50.922;6.988;2023-01-19T00:22:15;6.00;;;4.80;;
10170;SDS011;5127;50.922;6.988;2023-01-19T00:24:43;6.70;;;5.13;;
10170;SDS011;5127;50.922;6.988;2023-01-19T00:27:10;7.93;;;4.97;;
10170;SDS011;5127;50.922;6.988;2023-01-19T00:29:37;6.50;;;4.60;;
10170;SDS011;5127;50.922;6.988;2023-01-19T00:32:06;5.00;;;4.17;;
10170;SDS011;5127;50.922;6.988;2023-01-19T00:34:33;7.80;;;5.20;;
10170;SDS011;5127;50.922;6.988;2023-01-19T00:37:04;7.03;;;5.53;;
10170;SDS011;5127;50.922;6.988;2023-01-19T00:39:31;9.17;;;5.90;;
10170;SDS011;5127;50.922;6.988;2023-01-19T00:41:58;7.10;;;5.17;;
10170;SDS011;5127;50.922;6.988;2023-01-19T00:44:42;8.47;;;5.90;;
10170;SDS011;5127;50.922;6.988;2023-01-19T00:47:11;10.93;;;7.40;;
10170;SDS011;5127;50.922;6.988;2023-01-19T00:49:38;8.93;;;6.57;;
10170;SDS011;5127;50.922;6.988;2023-01-19T00:52:06;6.97;;;5.40;;
10170;SDS011;5127;50.922;6.988;2023-01-19T00:54:33;8.27;;;5.70;;
10170;SDS011;5127;50.922;6.988;2023-01-19T00:57:00;10.23;;;5.80;;
10170;SDS011;5127;50.922;6.988;2023-01-19T00:59:28;8.37;;;5.37;;
10170;SDS011;5127;50.922;6.988;2023-01-19T01:01:55;6.10;;;5.30;;
10170;SDS011;5127;50.922;6.988;2023-01-19T01:04:24;6.57;;;5.13;;
10170;SDS011;5127;50.922;6.988;2023-01-19T01:06:51;5.80;;;5.13;;
10170;SDS011;5127;50.922;6.988;2023-01-19T01:09:18;5.87;;;5.20;;
10170;SDS011;5127;50.922;6.988;2023-01-19T01:11:45;7.90;;;5.23;;
10170;SDS011;5127;50.922;6.988;2023-01-19T01:14:13;8.73;;;5.40;;
10170;SDS011;5127;50.922;6.988;2023-01-19T01:16:40;7.40;;;4.67;;
10170;SDS011;5127;50.922;6.988;2023-01-19T01:19:07;6.10;;;4.60;;
10170;SDS011;5127;50.922;6.988;2023-01-19T01:21:36;5.73;;;5.00;;
10170;SDS011;5127;50.922;6.988;2023-01-19T01:24:04;4.80;;;4.37;;
10170;SDS011;5127;50.922;6.988;2023-01-19T01:26:31;5.00;;;4.20;;
10170;SDS011;5127;50.922;6.988;2023-01-19T01:28:58;6.07;;;4.40;;
10170;SDS011;5127;50.922;6.988;2023-01-19T01:31:26;6.50;;;4.33;;
10170;SDS011;5127;50.922;6.988;2023-01-19T01:33:53;4.27;;;3.83;;
10170;SDS011;5127;50.922;6.988;2023-01-19T01:36:20;4.70;;;4.10;;
10170;SDS011;5127;50.922;6.988;2023-01-19T01:38:49;5.90;;;4.50;;
10170;SDS011;5127;50.922;6.988;2023-01-19T01:41:16;5.23;;;3.90;;
10170;SDS011;5127;50.922;6.988;2023-01-19T01:43:45;5.37;;;3.80;;
10170;SDS011;5127;50.922;6.988;2023-01-19T01:46:14;5.50;;;4.30;;
10170;SDS011;5127;50.922;6.988;2023-01-19T01:48:43;4.73;;;3.77;;
10170;SDS011;5127;50.922;6.988;2023-01-19T01:51:17;4.60;;;3.77;;
10170;SDS011;5127;50.922;6.988;2023-01-19T01:53:54;4.50;;;3.77;;
10170;SDS011;5127;50.922;6.988;2023-01-19T01:56:30;5.17;;;3.57;;
10170;SDS011;5127;50.922;6.988;2023-01-19T01:59:01;5.73;;;3.70;;
10170;SDS011;5127;50.922;6.988;2023-01-19T02:01:31;5.10;;;3.80;;
10170;SDS011;5127;50.922;6.988;2023-01-19T02:04:17;5.03;;;3.43;;
10170;SDS011;5127;50.922;6.988;2023-01-19T02:06:45;5.43;;;3.70;;
10170;SDS011;5127;50.922;6.988;2023-01-19T02:09:33;4.73;;;3.60;;
10170;SDS011;5127;50.922;6.988;2023-01-19T02:12:21;5.40;;;3.73;;
10170;SDS011;5127;50.922;6.988;2023-01-19T02:15:13;4.63;;;3.40;;
10170;SDS011;5127;50.922;6.988;2023-01-19T02:17:41;5.10;;;3.40;;
10170;SDS011;5127;50.922;6.988;2023-01-19T02:20:10;5.00;;;2.90;;
10170;SDS011;5127;50.922;6.988;2023-01-19T02:22:39;3.60;;;3.30;;
10170;SDS011;5127;50.922;6.988;2023-01-19T02:25:12;6.20;;;3.20;;
10170;SDS011;5127;50.922;6.988;2023-01-19T02:27:40;5.33;;;3.83;;
10170;SDS011;5127;50.922;6.988;2023-01-19T02:30:08;4.03;;;3.40;;
10170;SDS011;5127;50.922;6.988;2023-01-19T02:32:37;4.07;;;3.27;;
10170;SDS011;5127;50.922;6.988;2023-01-19T02:35:05;3.60;;;3.30;;
10170;SDS011;5127;50.922;6.988;2023-01-19T02:37:33;4.43;;;3.67;;
10170;SDS011;5127;50.922;6.988;2023-01-19T02:40:05;3.80;;;3.30;;
10170;SDS011;5127;50.922;6.988;2023-01-19T02:42:37;3.47;;;3.07;;
10170;SDS011;5127;50.922;6.988;2023-01-19T02:45:08;3.70;;;3.17;;
10170;SDS011;5127;50.922;6.988;2023-01-19T02:47:39;4.57;;;3.17;;
10170;SDS011;5127;50.922;6.988;2023-01-19T02:56:25;3.90;;;2.43;;
10170;SDS011;5127;50.922;6.988;2023-01-19T02:59:09;4.07;;;2.80;;
10170;SDS011;5127;50.922;6.988;2023-01-19T03:01:45;3.13;;;2.60;;
10170;SDS011;5127;50.922;6.988;2023-01-19T03:04:23;3.07;;;2.53;;
10170;SDS011;5127;50.922;6.988;2023-01-19T03:07:00;3.03;;;2.47;;
10170;SDS011;5127;50.922;6.988;2023-01-19T03:09:34;2.47;;;2.27;;
10170;SDS011;5127;50.922;6.988;2023-01-19T03:12:08;4.53;;;2.30;;
10170;SDS011;5127;50.922;6.988;2023-01-19T03:14:45;4.50;;;2.70;;
10170;SDS011;5127;50.922;6.988;2023-01-19T03:17:14;4.13;;;2.50;;
10170;SDS011;5127;50.922;6.988;2023-01-19T03:19:44;4.03;;;2.63;;
10170;SDS011;5127;50.922;6.988;2023-01-19T03:22:16;3.10;;;2.17;;
10170;SDS011;5127;50.922;6.988;2023-01-19T03:24:47;3.43;;;2.40;;
10170;SDS011;5127;50.922;6.988;2023-01-19T03:27:19;2.80;;;2.50;;
10170;SDS011;5127;50.922;6.988;2023-01-19T03:29:52;3.07;;;2.20;;
10170;SDS011;5127;50.922;6.988;2023-01-19T03:32:23;3.33;;;2.40;;
10170;SDS011;5127;50.922;6.988;2023-01-19T03:34:55;3.97;;;2.60;;
10170;SDS011;5127;50.922;6.988;2023-01-19T03:37:24;3.17;;;2.87;;
10170;SDS011;5127;50.922;6.988;2023-01-19T03:39:54;3.63;;;2.80;;
10170;SDS011;5127;50.922;6.988;2023-01-19T03:42:22;3.10;;;2.80;;
10170;SDS011;5127;50.922;6.988;2023-01-19T03:44:52;5.37;;;2.90;;
10170;SDS011;5127;50.922;6.988;2023-01-19T03:47:21;3.10;;;2.80;;
10170;SDS011;5127;50.922;6.988;2023-01-19T03:49:50;3.20;;;2.90;;
10170;SDS011;5127;50.922;6.988;2023-01-19T03:52:25;3.00;;;2.70;;
10170;SDS011;5127;50.922;6.988;2023-01-19T03:54:54;3.63;;;2.90;;
10170;SDS011;5127;50.922;6.988;2023-01-19T03:57:21;3.90;;;2.67;;
10170;SDS011;5127;50.922;6.988;2023-01-19T03:59:49;3.60;;;3.30;;
10170;SDS011;5127;50.922;6.988;2023-01-19T04:02:17;4.67;;;2.70;;
10170;SDS011;5127;50.922;6.988;2023-01-19T04:04:44;3.17;;;2.83;;
10170;SDS011;5127;50.922;6.988;2023-01-19T04:07:12;4.57;;;3.20;;
10170;SDS011;5127;50.922;6.988;2023-01-19T04:09:39;4.17;;;3.40;;
10170;SDS011;5127;50.922;6.988;2023-01-19T04:12:06;4.83;;;3.33;;
10170;SDS011;5127;50.922;6.988;2023-01-19T04:14:34;3.23;;;2.93;;
10170;SDS011;5127;50.922;6.988;2023-01-19T04:17:02;5.20;;;3.33;;
10170;SDS011;5127;50.922;6.988;2023-01-19T04:19:31;3.67;;;3.07;;
10170;SDS011;5127;50.922;6.988;2023-01-19T04:21:58;3.60;;;3.30;;
10170;SDS011;5127;50.922;6.988;2023-01-19T04:24:26;3.90;;;3.40;;
10170;SDS011;5127;50.922;6.988;2023-01-19T04:26:53;4.67;;;3.27;;
10170;SDS011;5127;50.922;6.988;2023-01-19T04:29:23;3.33;;;3.03;;
10170;SDS011;5127;50.922;6.988;2023-01-19T04:31:50;5.20;;;3.37;;
10170;SDS011;5127;50.922;6.988;2023-01-19T04:34:18;4.47;;;3.10;;
10170;SDS011;5127;50.922;6.988;2023-01-19T04:36:47;4.40;;;3.50;;
10170;SDS011;5127;50.922;6.988;2023-01-19T04:39:15;4.57;;;3.20;;
10170;SDS011;5127;50.922;6.988;2023-01-19T04:41:42;3.20;;;2.90;;
10170;SDS011;5127;50.922;6.988;2023-01-19T04:44:10;4.97;;;3.00;;
10170;SDS011;5127;50.922;6.988;2023-01-19T04:46:37;4.33;;;3.30;;
10170;SDS011;5127;50.922;6.988;2023-01-19T04:49:05;3.80;;;3.00;;
10170;SDS011;5127;50.922;6.988;2023-01-19T04:51:32;5.80;;;3.30;;
10170;SDS011;5127;50.922;6.988;2023-01-19T04:54:01;4.07;;;3.40;;
10170;SDS011;5127;50.922;6.988;2023-01-19T04:56:28;5.53;;;3.27;;
10170;SDS011;5127;50.922;6.988;2023-01-19T04:58:56;3.37;;;3.03;;
10170;SDS011;5127;50.922;6.988;2023-01-19T05:01:23;5.53;;;3.40;;
10170;SDS011;5127;50.922;6.988;2023-01-19T05:03:50;5.10;;;3.30;;
10170;SDS011;5127;50.922;6.988;2023-01-19T05:06:18;3.50;;;3.20;;
10170;SDS011;5127;50.922;6.988;2023-01-19T05:08:45;2.97;;;2.77;;
10170;SDS011;5127;50.922;6.988;2023-01-19T05:11:14;3.37;;;3.07;;
10170;SDS011;5127;50.922;6.988;2023-01-19T05:13:41;3.63;;;3.03;;
10170;SDS011;5127;50.922;6.988;2023-01-19T05:16:08;5.27;;;3.77;;
10170;SDS011;5127;50.922;6.988;2023-01-19T05:18:36;4.20;;;3.17;;
10170;SDS011;5127;50.922;6.988;2023-01-19T05:21:04;5.20;;;2.70;;
10170;SDS011;5127;50.922;6.988;2023-01-19T05:23:32;3.50;;;2.80;;
10170;SDS011;5127;50.922;6.988;2023-01-19T05:25:59;3.00;;;2.70;;
10170;SDS011;5127;50.922;6.988;2023-01-19T05:28:30;3.60;;;2.50;;
10170;SDS011;5127;50.922;6.988;2023-01-19T05:30:58;3.10;;;2.57;;
10170;SDS011;5127;50.922;6.988;2023-01-19T05:33:26;3.37;;;2.40;;
10170;SDS011;5127;50.922;6.988;2023-01-19T05:35:53;3.30;;;2.57;;
10170;SDS011;5127;50.922;6.988;2023-01-19T05:38:21;3.63;;;2.50;;
10170;SDS011;5127;50.922;6.988;2023-01-19T05:40:48;2.67;;;2.47;;
10170;SDS011;5127;50.922;6.988;2023-01-19T05:43:21;4.17;;;2.57;;
10170;SDS011;5127;50.922;6.988;2023-01-19T05:45:51;4.07;;;2.80;;
10170;SDS011;5127;50.922;6.988;2023-01-19T05:48:18;4.33;;;2.77;;
10170;SDS011;5127;50.922;6.988;2023-01-19T05:50:45;3.87;;;2.80;;
10170;SDS011;5127;50.922;6.988;2023-01-19T05:53:14;4.67;;;3.37;;
10170;SDS011;5127;50.922;6.988;2023-01-19T05:55:41;5.47;;;3.37;;
10170;SDS011;5127;50.922;6.988;2023-01-19T05:58:09;6.67;;;3.60;;
10170;SDS011;5127;50.922;6.988;2023-01-19T06:00:36;4.50;;;3.47;;
10170;SDS011;5127;50.922;6.988;2023-01-19T06:03:05;7.57;;;3.30;;
10170;SDS011;5127;50.922;6.988;2023-01-19T06:05:32;5.00;;;3.43;;
10170;SDS011;5127;50.922;6.988;2023-01-19T06:08:02;7.90;;;3.87;;
10170;SDS011;5127;50.922;6.988;2023-01-19T06:10:30;8.20;;;3.93;;
10170;SDS011;5127;50.922;6.988;2023-01-19T06:12:57;8.43;;;4.37;;
10170;SDS011;5127;50.922;6.988;2023-01-19T06:15:24;7.10;;;4.53;;
10170;SDS011;5127;50.922;6.988;2023-01-19T06:17:52;5.80;;;4.30;;
10170;SDS011;5127;50.922;6.988;2023-01-19T06:20:20;6.13;;;4.53;;
10170;SDS011;5127;50.922;6.988;2023-01-19T06:22:47;4.73;;;4.07;;
10170;SDS011;5127;50.922;6.988;2023-01-19T06:25:15;6.33;;;4.70;;
10170;SDS011;5127;50.922;6.988;2023-01-19T06:27:42;8.37;;;5.80;;
10170;SDS011;5127;50.922;6.988;2023-01-19T06:30:11;6.03;;;4.70;;
10170;SDS011;5127;50.922;6.988;2023-01-19T06:32:39;6.43;;;4.83;;
10170;SDS011;5127;50.922;6.988;2023-01-19T06:35:06;8.30;;;4.67;;
10170;SDS011;5127;50.922;6.988;2023-01-19T06:37:35;8.20;;;5.60;;
10170;SDS011;5127;50.922;6.988;2023-01-19T06:40:03;7.33;;;5.20;;
10170;SDS011;5127;50.922;6.988;2023-01-19T06:42:31;9.10;;;5.80;;
10170;SDS011;5127;50.922;6.988;2023-01-19T06:44:59;7.40;;;5.60;;
10170;SDS011;5127;50.922;6.988;2023-01-19T06:47:26;9.17;;;6.27;;
10170;SDS011;5127;50.922;6.988;2023-01-19T06:49:53;7.13;;;5.63;;
10170;SDS011;5127;50.922;6.988;2023-01-19T06:52:21;9.00;;;6.40;;
10170;SDS011;5127;50.922;6.988;2023-01-19T06:54:49;8.53;;;5.83;;
10170;SDS011;5127;50.922;6.988;2023-01-19T06:57:17;7.17;;;6.00;;
10170;SDS011;5127;50.922;6.988;2023-01-19T06:59:44;7.60;;;5.80;;
10170;SDS011;5127;50.922;6.988;2023-01-19T07:02:11;7.47;;;5.77;;
10170;SDS011;5127;50.922;6.988;2023-01-19T07:04:44;7.00;;;5.13;;
10170;SDS011;5127;50.922;6.988;2023-01-19T07:07:11;7.27;;;5.00;;
10170;SDS011;5127;50.922;6.988;2023-01-19T07:09:38;7.27;;;5.60;;
10170;SDS011;5127;50.922;6.988;2023-01-19T07:12:07;6.83;;;5.77;;
10170;SDS011;5127;50.922;6.988;2023-01-19T07:14:34;6.47;;;5.83;;
10170;SDS011;5127;50.922;6.988;2023-01-19T07:17:02;7.43;;;5.77;;
10170;SDS011;5127;50.922;6.988;2023-01-19T07:19:29;8.23;;;5.90;;
10170;SDS011;5127;50.922;6.988;2023-01-19T07:21:56;6.23;;;5.63;;
10170;SDS011;5127;50.922;6.988;2023-01-19T07:24:24;7.50;;;6.10;;
10170;SDS011;5127;50.922;6.988;2023-01-19T07:26:51;7.30;;;6.07;;
10170;SDS011;5127;50.922;6.988;2023-01-19T07:29:20;8.03;;;6.73;;
10170;SDS011;5127;50.922;6.988;2023-01-19T07:31:47;6.97;;;5.70;;
10170;SDS011;5127;50.922;6.988;2023-01-19T07:34:14;7.97;;;6.50;;
10170;SDS011;5127;50.922;6.988;2023-01-19T07:36:41;7.37;;;6.03;;
10170;SDS011;5127;50.922;6.988;2023-01-19T07:39:09;8.27;;;6.37;;
10170;SDS011;5127;50.922;6.988;2023-01-19T07:41:36;8.63;;;7.00;;
10170;SDS011;5127;50.922;6.988;2023-01-19T07:44:05;8.00;;;6.73;;
10170;SDS011;5127;50.922;6.988;2023-01-19T07:46:34;8.97;;;6.97;;
10170;SDS011;5127;50.922;6.988;2023-01-19T07:49:01;7.50;;;6.20;;
10170;SDS011;5127;50.922;6.988;2023-01-19T07:51:29;8.63;;;6.70;;
10170;SDS011;5127;50.922;6.988;2023-01-19T07:53:56;10.23;;;6.63;;
10170;SDS011;5127;50.922;6.988;2023-01-19T07:56:23;8.17;;;6.77;;
10170;SDS011;5127;50.922;6.988;2023-01-19T07:58:52;8.03;;;6.30;;
10170;SDS011;5127;50.922;6.988;2023-01-19T08:01:19;9.80;;;7.17;;
10170;SDS011;5127;50.922;6.988;2023-01-19T08:03:49;8.70;;;7.03;;
10170;SDS011;5127;50.922;6.988;2023-01-19T08:06:18;7.87;;;6.83;;
10170;SDS011;5127;50.922;6.988;2023-01-19T08:08:47;7.73;;;6.87;;
10170;SDS011;5127;50.922;6.988;2023-01-19T08:11:14;9.80;;;6.80;;
10170;SDS011;5127;50.922;6.988;2023-01-19T08:13:42;9.93;;;8.10;;
10170;SDS011;5127;50.922;6.988;2023-01-19T08:16:09;9.03;;;7.00;;
10170;SDS011;5127;50.922;6.988;2023-01-19T08:18:36;11.13;;;7.53;;
10170;SDS011;5127;50.922;6.988;2023-01-19T08:21:05;9.57;;;6.67;;
10170;SDS011;5127;50.922;6.988;2023-01-19T08:23:32;10.63;;;6.60;;
10170;SDS011;5127;50.922;6.988;2023-01-19T08:26:00;9.37;;;6.83;;
10170;SDS011;5127;50.922;6.988;2023-01-19T08:28:27;8.90;;;7.53;;
10170;SDS011;5127;50.922;6.988;2023-01-19T08:30:54;9.00;;;7.33;;
10170;SDS011;5127;50.922;6.988;2023-01-19T08:33:22;8.30;;;7.30;;
10170;SDS011;5127;50.922;6.988;2023-01-19T08:35:50;10.90;;;6.67;;
10170;SDS011;5127;50.922;6.988;2023-01-19T08:38:20;8.07;;;6.80;;
10170;SDS011;5127;50.922;6.988;2023-01-19T08:40:47;7.13;;;6.40;;
10170;SDS011;5127;50.922;6.988;2023-01-19T08:43:15;8.27;;;6.43;;
10170;SDS011;5127;50.922;6.988;2023-01-19T08:45:44;7.33;;;6.13;;
10170;SDS011;5127;50.922;6.988;2023-01-19T08:48:16;6.83;;;5.80;;
10170;SDS011;5127;50.922;6.988;2023-01-19T08:50:44;7.70;;;6.17;;
10170;SDS011;5127;50.922;6.988;2023-01-19T08:53:12;8.00;;;6.50;;
10170;SDS011;5127;50.922;6.988;2023-01-19T08:55:41;7.80;;;6.83;;
10170;SDS011;5127;50.922;6.988;2023-01-19T08:58:09;9.43;;;7.23;;
10170;SDS011;5127;50.922;6.988;2023-01-19T09:00:36;8.60;;;6.40;;
10170;SDS011;5127;50.922;6.988;2023-01-19T09:03:05;8.47;;;6.93;;
10170;SDS011;5127;50.922;6.988;2023-01-19T09:05:35;7.43;;;6.37;;
10170;SDS011;5127;50.922;6.988;2023-01-19T09:08:04;7.33;;;5.97;;
10170;SDS011;5127;50.922;6.988;2023-01-19T09:10:34;8.57;;;6.90;;
10170;SDS011;5127;50.922;6.988;2023-01-19T09:13:04;9.57;;;6.83;;
10170;SDS011;5127;50.922;6.988;2023-01-19T09:15:35;8.93;;;6.93;;
10170;SDS011;5127;50.922;6.988;2023-01-19T09:18:03;9.87;;;7.33;;
10170;SDS011;5127;50.922;6.988;2023-01-19T09:20:32;8.67;;;6.93;;
10170;SDS011;5127;50.922;6.988;2023-01-19T09:23:01;8.00;;;6.90;;
10170;SDS011;5127;50.922;6.988;2023-01-19T09:25:28;9.27;;;7.70;;
10170;SDS011;5127;50.922;6.988;2023-01-19T09:27:55;9.13;;;7.73;;
10170;SDS011;5127;50.922;6.988;2023-01-19T09:30:26;8.37;;;7.10;;
10170;SDS011;5127;50.922;6.988;2023-01-19T09:32:53;9.40;;;7.33;;
10170;SDS011;5127;50.922;6.988;2023-01-19T09:35:21;9.27;;;7.60;;
10170;SDS011;5127;50.922;6.988;2023-01-19T09:37:48;11.83;;;8.37;;
10170;SDS011;5127;50.922;6.988;2023-01-19T09:40:15;11.13;;;8.17;;
10170;SDS011;5127;50.922;6.988;2023-01-19T09:42:46;11.07;;;8.87;;
10170;SDS011;5127;50.922;6.988;2023-01-19T09:45:18;11.23;;;8.33;;
10170;SDS011;5127;50.922;6.988;2023-01-19T09:47:53;10.30;;;8.33;;
10170;SDS011;5127;50.922;6.988;2023-01-19T09:50:23;11.67;;;8.67;;
10170;SDS011;5127;50.922;6.988;2023-01-19T09:52:54;14.90;;;8.80;;
10170;SDS011;5127;50.922;6.988;2023-01-19T09:55:25;11.07;;;8.53;;
10170;SDS011;5127;50.922;6.988;2023-01-19T09:57:53;12.97;;;8.83;;
10170;SDS011;5127;50.922;6.988;2023-01-19T10:00:21;12.87;;;8.53;;
10170;SDS011;5127;50.922;6.988;2023-01-19T10:02:50;13.47;;;9.70;;
10170;SDS011;5127;50.922;6.988;2023-01-19T10:05:25;14.40;;;9.40;;
10170;SDS011;5127;50.922;6.988;2023-01-19T10:07:58;14.40;;;9.23;;
10170;SDS011;5127;50.922;6.988;2023-01-19T10:10:33;13.37;;;8.87;;
10170;SDS011;5127;50.922;6.988;2023-01-19T10:15:57;13.03;;;9.50;;
10170;SDS011;5127;50.922;6.988;2023-01-19T10:18:34;13.50;;;9.43;;
10170;SDS011;5127;50.922;6.988;2023-01-19T10:21:11;15.50;;;9.60;;
10170;SDS011;5127;50.922;6.988;2023-01-19T10:23:43;14.30;;;9.67;;
10170;SDS011;5127;50.922;6.988;2023-01-19T10:26:15;11.57;;;9.23;;
10170;SDS011;5127;50.922;6.988;2023-01-19T10:28:46;16.43;;;10.20;;
10170;SDS011;5127;50.922;6.988;2023-01-19T10:31:16;17.47;;;10.17;;
10170;SDS011;5127;50.922;6.988;2023-01-19T10:33:48;15.00;;;10.17;;
10170;SDS011;5127;50.922;6.988;2023-01-19T10:36:16;16.17;;;10.47;;
10170;SDS011;5127;50.922;6.988;2023-01-19T10:38:46;15.10;;;9.60;;
10170;SDS011;5127;50.922;6.988;2023-01-19T10:41:16;15.20;;;9.80;;
10170;SDS011;5127;50.922;6.988;2023-01-19T10:43:46;16.23;;;9.83;;
10170;SDS011;5127;50.922;6.988;2023-01-19T10:46:17;19.30;;;9.87;;
10170;SDS011;5127;50.922;6.988;2023-01-19T10:48:52;15.67;;;10.00;;
10170;SDS011;5127;50.922;6.988;2023-01-19T10:51:20;16.00;;;10.07;;
10170;SDS011;5127;50.922;6.988;2023-01-19T10:53:52;15.80;;;10.43;;
10170;SDS011;5127;50.922;6.988;2023-01-19T10:56:25;13.17;;;10.17;;
10170;SDS011;5127;50.922;6.988;2023-01-19T10:58:55;14.30;;;10.00;;
10170;SDS011;5127;50.922;6.988;2023-01-19T11:01:24;15.70;;;9.77;;
10170;SDS011;5127;50.922;6.988;2023-01-19T11:03:54;15.07;;;10.63;;
10170;SDS011;5127;50.922;6.988;2023-01-19T11:06:30;15.23;;;10.43;;
10170;SDS011;5127;50.922;6.988;2023-01-19T11:09:12;17.40;;;10.43;;
10170;SDS011;5127;50.922;6.988;2023-01-19T11:11:44;15.53;;;10.80;;
10170;SDS011;5127;50.922;6.988;2023-01-19T11:14:15;16.23;;;10.63;;
10170;SDS011;5127;50.922;6.988;2023-01-19T11:16:45;17.17;;;10.60;;
10170;SDS011;5127;50.922;6.988;2023-01-19T11:19:20;21.90;;;10.93;;
10170;SDS011;5127;50.922;6.988;2023-01-19T11:21:51;16.20;;;10.67;;
10170;SDS011;5127;50.922;6.988;2023-01-19T11:24:33;17.83;;;10.50;;
10170;SDS011;5127;50.922;6.988;2023-01-19T11:27:03;16.83;;;10.30;;
10170;SDS011;5127;50.922;6.988;2023-01-19T11:29:30;13.93;;;10.03;;
10170;SDS011;5127;50.922;6.988;2023-01-19T11:32:08;16.43;;;11.30;;
10170;SDS011;5127;50.922;6.988;2023-01-19T11:34:38;16.50;;;9.70;;
10170;SDS011;5127;50.922;6.988;2023-01-19T11:37:20;13.77;;;9.63;;
10170;SDS011;5127;50.922;6.988;2023-01-19T11:39:55;14.30;;;10.37;;
10170;SDS011;5127;50.922;6.988;2023-01-19T11:42:24;16.63;;;10.90;;
10170;SDS011;5127;50.922;6.988;2023-01-19T11:44:56;14.67;;;9.90;;
10170;SDS011;5127;50.922;6.988;2023-01-19T11:47:27;17.53;;;10.73;;
10170;SDS011;5127;50.922;6.988;2023-01-19T11:50:01;16.40;;;10.70;;
10170;SDS011;5127;50.922;6.988;2023-01-19T11:52:32;16.23;;;10.63;;
10170;SDS011;5127;50.922;6.988;2023-01-19T11:55:04;18.70;;;10.67;;
10170;SDS011;5127;50.922;6.988;2023-01-19T11:57:41;15.83;;;9.90;;
10170;SDS011;5127;50.922;6.988;2023-01-19T12:00:16;15.43;;;10.30;;
10170;SDS011;5127;50.922;6.988;2023-01-19T12:02:49;14.50;;;10.10;;
10170;SDS011;5127;50.922;6.988;2023-01-19T12:05:22;14.67;;;10.00;;
10170;SDS011;5127;50.922;6.988;2023-01-19T12:07:58;13.03;;;9.17;;
10170;SDS011;5127;50.922;6.988;2023-01-19T12:10:29;12.37;;;8.63;;
10170;SDS011;5127;50.922;6.988;2023-01-19T12:13:01;14.97;;;9.27;;
10170;SDS011;5127;50.922;6.988;2023-01-19T12:15:30;13.40;;;9.13;;
10170;SDS011;5127;50.922;6.988;2023-01-19T12:18:02;15.17;;;9.53;;
10170;SDS011;5127;50.922;6.988;2023-01-19T12:20:34;17.47;;;9.00;;
10170;SDS011;5127;50.922;6.988;2023-01-19T12:23:07;13.93;;;8.50;;
10170;SDS011;5127;50.922;6.988;2023-01-19T12:25:45;14.47;;;8.90;;
10170;SDS011;5127;50.922;6.988;2023-01-19T12:28:26;15.03;;;8.40;;
10170;SDS011;5127;50.922;6.988;2023-01-19T12:30:56;16.47;;;9.17;;
10170;SDS011;5127;50.922;6.988;2023-01-19T12:33:32;13.27;;;9.23;;
10170;SDS011;5127;50.922;6.988;2023-01-19T12:36:03;15.90;;;8.70;;
10170;SDS011;5127;50.922;6.988;2023-01-19T12:38:37;16.53;;;8.93;;
10170;SDS011;5127;50.922;6.988;2023-01-19T12:41:24;14.70;;;8.87;;
10170;SDS011;5127;50.922;6.988;2023-01-19T12:46:41;12.77;;;8.27;;
10170;SDS011;5127;50.922;6.988;2023-01-19T12:49:11;11.27;;;9.00;;
10170;SDS011;5127;50.922;6.988;2023-01-19T12:51:49;14.57;;;8.77;;
10170;SDS011;5127;50.922;6.988;2023-01-19T12:54:19;15.30;;;9.13;;
10170;SDS011;5127;50.922;6.988;2023-01-19T12:56:57;13.27;;;8.47;;
10170;SDS011;5127;50.922;6.988;2023-01-19T12:59:34;13.30;;;7.43;;
10170;SDS011;5127;50.922;6.988;2023-01-19T13:05:23;15.00;;;8.90;;
10170;SDS011;5127;50.922;6.988;2023-01-19T13:08:18;14.17;;;8.33;;
10170;SDS011;5127;50.922;6.988;2023-01-19T13:13:39;11.27;;;7.90;;
10170;SDS011;5127;50.922;6.988;2023-01-19T13:19:14;11.87;;;7.60;;
10170;SDS011;5127;50.922;6.988;2023-01-19T13:21:44;17.33;;;9.00;;
10170;SDS011;5127;50.922;6.988;2023-01-19T13:24:14;11.33;;;7.83;;
10170;SDS011;5127;50.922;6.988;2023-01-19T13:26:51;14.77;;;8.70;;
10170;SDS011;5127;50.922;6.988;2023-01-19T13:29:21;11.37;;;8.47;;
10170;SDS011;5127;50.922;6.988;2023-01-19T13:31:54;12.17;;;8.27;;
10170;SDS011;5127;50.922;6.988;2023-01-19T13:34:27;14.30;;;8.23;;
10170;SDS011;5127;50.922;6.988;2023-01-19T13:36:56;17.27;;;8.47;;
10170;SDS011;5127;50.922;6.988;2023-01-19T13:39:27;15.10;;;8.63;;
10170;SDS011;5127;50.922;6.988;2023-01-19T13:41:57;14.77;;;8.20;;
10170;SDS011;5127;50.922;6.988;2023-01-19T13:44:27;11.20;;;8.00;;
10170;SDS011;5127;50.922;6.988;2023-01-19T13:46:57;12.33;;;7.87;;
10170;SDS011;5127;50.922;6.988;2023-01-19T13:49:26;13.20;;;7.53;;
10170;SDS011;5127;50.922;6.988;2023-01-19T13:52:05;13.60;;;7.53;;
10170;SDS011;5127;50.922;6.988;2023-01-19T13:54:46;11.60;;;7.13;;
10170;SDS011;5127;50.922;6.988;2023-01-19T13:57:25;10.13;;;6.77;;
10170;SDS011;5127;50.922;6.988;2023-01-19T14:00:02;13.73;;;6.73;;
10170;SDS011;5127;50.922;6.988;2023-01-19T14:02:36;11.40;;;7.43;;
10170;SDS011;5127;50.922;6.988;2023-01-19T14:05:13;10.83;;;7.40;;
10170;SDS011;5127;50.922;6.988;2023-01-19T14:07:43;10.93;;;7.97;;
10170;SDS011;5127;50.922;6.988;2023-01-19T14:10:13;9.80;;;7.10;;
10170;SDS011;5127;50.922;6.988;2023-01-19T14:12:42;10.10;;;7.13;;
10170;SDS011;5127;50.922;6.988;2023-01-19T14:15:10;12.70;;;7.23;;
10170;SDS011;5127;50.922;6.988;2023-01-19T14:17:39;9.53;;;7.00;;
10170;SDS011;5127;50.922;6.988;2023-01-19T14:22:57;9.73;;;6.97;;
10170;SDS011;5127;50.922;6.988;2023-01-19T14:25:30;10.07;;;7.13;;
10170;SDS011;5127;50.922;6.988;2023-01-19T14:30:52;10.87;;;7.13;;
10170;SDS011;5127;50.922;6.988;2023-01-19T14:33:34;13.20;;;7.50;;
10170;SDS011;5127;50.922;6.988;2023-01-19T14:36:09;8.23;;;6.43;;
10170;SDS011;5127;50.922;6.988;2023-01-19T14:38:47;9.90;;;7.37;;
10170;SDS011;5127;50.922;6.988;2023-01-19T14:41:22;9.83;;;7.37;;
10170;SDS011;5127;50.922;6.988;2023-01-19T14:43:52;8.77;;;6.93;;
10170;SDS011;5127;50.922;6.988;2023-01-19T14:46:20;10.67;;;6.40;;
10170;SDS011;5127;50.922;6.988;2023-01-19T14:48:49;8.80;;;6.53;;
10170;SDS011;5127;50.922;6.988;2023-01-19T14:51:21;9.47;;;6.67;;
10170;SDS011;5127;50.922;6.988;2023-01-19T14:53:50;9.63;;;7.40;;
10170;SDS011;5127;50.922;6.988;2023-01-19T14:56:25;8.33;;;6.50;;
10170;SDS011;5127;50.922;6.988;2023-01-19T14:58:55;8.53;;;6.53;;
10170;SDS011;5127;50.922;6.988;2023-01-19T15:01:24;7.50;;;6.53;;
10170;SDS011;5127;50.922;6.988;2023-01-19T15:03:55;11.70;;;7.80;;
10170;SDS011;5127;50.922;6.988;2023-01-19T15:06:24;11.13;;;7.10;;
10170;SDS011;5127;50.922;6.988;2023-01-19T15:08:52;10.93;;;6.87;;
10170;SDS011;5127;50.922;6.988;2023-01-19T15:11:21;12.60;;;6.67;;
10170;SDS011;5127;50.922;6.988;2023-01-19T15:13:52;9.43;;;6.50;;
10170;SDS011;5127;50.922;6.988;2023-01-19T15:16:20;7.87;;;6.83;;
10170;SDS011;5127;50.922;6.988;2023-01-19T15:18:49;8.07;;;6.50;;
10170;SDS011;5127;50.922;6.988;2023-01-19T15:21:19;8.90;;;6.90;;
10170;SDS011;5127;50.922;6.988;2023-01-19T15:23:51;9.40;;;6.87;;
10170;SDS011;5127;50.922;6.988;2023-01-19T15:26:20;10.00;;;7.43;;
10170;SDS011;5127;50.922;6.988;2023-01-19T15:28:49;9.07;;;6.60;;
10170;SDS011;5127;50.922;6.988;2023-01-19T15:31:19;8.67;;;6.77;;
10170;SDS011;5127;50.922;6.988;2023-01-19T15:33:48;8.40;;;5.70;;
10170;SDS011;5127;50.922;6.988;2023-01-19T15:36:16;8.43;;;6.30;;
10170;SDS011;5127;50.922;6.988;2023-01-19T15:38:46;8.73;;;5.40;;